Time;durP1;ratioP1;P1;durP2;ratioP2;P2;SDS_P1;SDS_P2;PMS_P1;PMS_P2;Temp;Humidity;BMP_temperature;BMP_pressure;BME280_temperature;BME280_humidity;BME280_pressure;Samples;Min_cycle;Max_cycle;Signal;HPM_P1;HPM_P2
2022/10/09 00:00:43;;;;;;;3.22;2.83;;;;;;;13.18;100.00;100478.31;6344029;22;20012;-79
2022/10/09 00:03:08;;;;;;;3.80;3.22;;;;;;;13.16;100.00;100480.75;6340701;22;20507;-79
2022/10/09 00:05:34;;;;;;;21.80;3.28;;;;;;;13.17;100.00;100482.31;6371635;22;20025;-79
2022/10/09 00:07:59;;;;;;;3.60;2.85;;;;;;;13.12;100.00;100474.50;6370503;22;20014;-79
2022/10/09 00:10:25;;;;;;;2.97;2.53;;;;;;;13.07;100.00;100475.81;6342982;22;20013;-79
2022/10/09 00:12:50;;;;;;;6.05;4.05;;;;;;;13.11;100.00;100475.72;6372642;22;20014;-88
2022/10/09 00:15:16;;;;;;;2.60;2.40;;;;;;;13.11;100.00;100486.88;6373472;22;20010;-80
2022/10/09 00:17:41;;;;;;;3.65;2.75;;;;;;;13.09;100.00;100482.50;6342737;22;20059;-78
2022/10/09 00:20:07;;;;;;;4.70;1.83;;;;;;;13.08;100.00;100478.16;6342884;22;20025;-78
2022/10/09 00:22:33;;;;;;;4.57;3.70;;;;;;;13.08;100.00;100475.38;6371053;22;20010;-78
2022/10/09 00:24:59;;;;;;;3.92;2.83;;;;;;;13.08;100.00;100467.03;6369937;22;20013;-79
2022/10/09 00:27:24;;;;;;;2.10;2.00;;;;;;;13.03;100.00;100472.34;6370829;22;20432;-79
2022/10/09 00:29:50;;;;;;;2.50;2.30;;;;;;;13.02;100.00;100474.34;6370815;22;20010;-79
2022/10/09 00:32:16;;;;;;;2.95;2.65;;;;;;;13.11;100.00;100481.28;6371911;22;20336;-90
2022/10/09 00:34:42;;;;;;;4.15;3.10;;;;;;;13.15;100.00;100484.75;6373379;22;20031;-78
2022/10/09 00:37:07;;;;;;;2.47;2.28;;;;;;;13.19;100.00;100485.44;6369300;22;20010;-78
2022/10/09 00:39:33;;;;;;;1.13;1.05;;;;;;;13.20;100.00;100481.44;6371189;22;20093;-78
2022/10/09 00:41:58;;;;;;;2.95;2.40;;;;;;;13.27;100.00;100493.13;6370905;22;20026;-78
2022/10/09 00:44:45;;;;;;;2.42;2.22;;;;;;;13.29;100.00;100490.69;6369817;22;20052;-78
2022/10/09 00:47:35;;;;;;;2.85;2.08;;;;;;;13.28;100.00;100491.91;6369772;22;20018;-78
2022/10/09 00:50:23;;;;;;;1.92;1.52;;;;;;;13.23;100.00;100486.09;6370402;22;20386;-78
2022/10/09 00:52:52;;;;;;;4.93;2.88;;;;;;;13.22;100.00;100495.72;6342242;22;20344;-87
2022/10/09 00:55:17;;;;;;;4.90;3.92;;;;;;;13.16;100.00;100486.31;6370855;22;20154;-87
2022/10/09 00:57:43;;;;;;;3.85;3.40;;;;;;;13.16;100.00;100497.47;6343332;22;20081;-88
2022/10/09 01:00:11;;;;;;;1.08;1.08;;;;;;;13.19;100.00;100491.00;6371108;22;20005;-87
2022/10/09 01:02:37;;;;;;;2.05;1.85;;;;;;;13.09;100.00;100479.72;6335268;22;20014;-92
2022/10/09 01:05:04;;;;;;;3.88;1.77;;;;;;;13.24;100.00;100498.81;6307080;22;20021;-94
2022/10/09 01:07:38;;;;;;;1.38;1.27;;;;;;;13.20;100.00;100487.78;6356721;22;20009;-92
2022/10/09 01:10:34;;;;;;;2.45;1.75;;;;;;;13.21;100.00;100494.94;6332286;22;20010;-93
2022/10/09 01:13:26;;;;;;;3.90;1.95;;;;;;;13.25;100.00;100498.38;6333691;22;20017;-94
2022/10/09 01:15:59;;;;;;;2.30;2.10;;;;;;;13.27;100.00;100500.72;6318731;22;20018;-94
2022/10/09 01:18:48;;;;;;;1.38;1.27;;;;;;;13.30;100.00;100503.41;6332284;22;20068;-93
2022/10/09 01:21:21;;;;;;;3.40;2.95;;;;;;;13.32;100.00;100508.53;6332793;22;20006;-93
2022/10/09 01:23:52;;;;;;;7.57;1.75;;;;;;;13.33;100.00;100505.31;6277826;22;20457;-81
2022/10/09 01:26:31;;;;;;;2.80;2.17;;;;;;;13.37;100.00;100514.34;6284410;22;20019;-81
2022/10/09 01:29:01;;;;;;;2.38;1.60;;;;;;;13.33;100.00;100501.72;6309712;22;20015;-81
2022/10/09 01:31:29;;;;;;;3.90;3.47;;;;;;;13.31;100.00;100504.16;6309142;22;20014;-81
2022/10/09 01:33:56;;;;;;;3.53;1.77;;;;;;;13.29;100.00;100517.78;6335165;22;20334;-81
2022/10/09 01:36:23;;;;;;;2.88;1.23;;;;;;;13.27;100.00;100511.84;6283702;22;20007;-81
2022/10/09 01:38:49;;;;;;;4.22;2.80;;;;;;;13.15;100.00;100498.69;6309075;22;20015;-81
2022/10/09 01:41:15;;;;;;;1.92;1.67;;;;;;;13.27;100.00;100511.84;6337252;22;20085;-81
2022/10/09 01:43:40;;;;;;;3.47;2.30;;;;;;;13.25;100.00;100517.09;6282626;22;20426;-81
2022/10/09 01:46:21;;;;;;;1.80;1.70;;;;;;;13.30;100.00;100516.56;6283641;22;20072;-81
2022/10/09 01:49:13;;;;;;;2.17;1.98;;;;;;;13.28;100.00;100517.00;6308711;22;20011;-82
2022/10/09 01:51:52;;;;;;;2.00;1.88;;;;;;;13.31;100.00;100509.72;6336751;22;20022;-81
2022/10/09 01:54:27;;;;;;;2.03;1.50;;;;;;;13.33;100.00;100507.31;6283140;22;20014;-81
2022/10/09 01:56:54;;;;;;;1.85;1.75;;;;;;;13.31;100.00;100506.94;6310061;22;20021;-80
2022/10/09 01:59:19;;;;;;;4.75;2.70;;;;;;;13.37;100.00;100513.53;6259241;22;20075;-81
2022/10/09 02:01:46;;;;;;;1.75;1.45;;;;;;;13.28;100.00;100510.63;6283051;22;20501;-81
2022/10/09 02:04:12;;;;;;;2.30;1.55;;;;;;;13.29;100.00;100515.78;6282865;22;20018;-81
2022/10/09 02:06:39;;;;;;;2.58;2.00;;;;;;;13.22;100.00;100512.41;6257940;22;20365;-81
2022/10/09 02:09:11;;;;;;;2.42;1.90;;;;;;;13.23;100.00;100519.53;6282955;22;20015;-81
2022/10/09 02:11:38;;;;;;;1.60;1.50;;;;;;;13.19;100.00;100518.84;6283940;22;20022;-81
2022/10/09 02:14:04;;;;;;;1.40;1.30;;;;;;;13.19;100.00;100521.63;6282190;22;20336;-80
2022/10/09 02:16:35;;;;;;;3.22;2.95;;;;;;;13.18;100.00;100520.09;6283523;22;20025;-81
2022/10/09 02:19:07;;;;;;;2.03;1.52;;;;;;;13.12;100.00;100519.84;6335770;22;20423;-81
2022/10/09 02:21:53;;;;;;;0.93;0.85;;;;;;;13.13;100.00;100531.78;6308978;22;20014;-81
2022/10/09 02:24:20;;;;;;;3.35;3.05;;;;;;;13.12;100.00;100530.22;6308835;22;20014;-81
2022/10/09 02:26:46;;;;;;;2.22;2.03;;;;;;;13.01;100.00;100525.72;6309161;22;20469;-81
2022/10/09 02:29:12;;;;;;;2.50;1.95;;;;;;;13.06;100.00;100522.38;6336369;22;20011;-81
2022/10/09 02:31:40;;;;;;;1.05;1.05;;;;;;;13.06;100.00;100527.94;6308019;22;20014;-81
2022/10/09 02:34:09;;;;;;;2.42;2.05;;;;;;;13.11;100.00;100535.00;6307270;22;20497;-81
2022/10/09 02:36:36;;;;;;;2.17;1.83;;;;;;;13.00;100.00;100518.59;6283019;22;20582;-81
2022/10/09 02:39:03;;;;;;;2.53;2.28;;;;;;;12.95;100.00;100518.34;6283087;22;20082;-81
2022/10/09 02:41:29;;;;;;;0.82;0.82;;;;;;;13.07;100.00;100532.28;6336466;22;20018;-81
2022/10/09 02:43:54;;;;;;;1.67;1.58;;;;;;;13.04;100.00;100535.97;6281816;22;20091;-81
2022/10/09 02:46:20;;;;;;;2.30;1.88;;;;;;;13.03;100.00;100531.63;6336286;22;20006;-81
2022/10/09 02:48:46;;;;;;;3.80;2.72;;;;;;;13.03;100.00;100534.41;6307006;22;20007;-81
2022/10/09 02:51:11;;;;;;;1.00;0.93;;;;;;;12.90;100.00;100508.50;6306478;22;20061;-81
2022/10/09 02:53:37;;;;;;;1.23;1.13;;;;;;;13.03;100.00;100537.19;6308720;22;20052;-81
2022/10/09 02:56:03;;;;;;;1.45;1.30;;;;;;;13.00;100.00;100523.38;6336274;22;20014;-81
2022/10/09 02:58:29;;;;;;;1.48;1.38;;;;;;;13.06;100.00;100538.31;6336611;22;20003;-81
2022/10/09 03:00:55;;;;;;;3.22;1.67;;;;;;;12.95;100.00;100521.13;6335759;22;20029;-81
2022/10/09 03:03:21;;;;;;;1.17;1.08;;;;;;;13.06;100.00;100539.06;6336517;22;20446;-81
2022/10/09 03:05:46;;;;;;;1.60;1.42;;;;;;;13.07;100.00;100540.66;6334983;22;20049;-81
2022/10/09 03:08:13;;;;;;;2.03;1.85;;;;;;;12.85;100.00;100509.09;6282704;22;20017;-81
2022/10/09 03:10:39;;;;;;;1.67;1.58;;;;;;;13.02;100.00;100538.41;6336165;22;20073;-81
2022/10/09 03:13:05;;;;;;;0.80;0.75;;;;;;;12.97;100.00;100535.41;6308596;22;20003;-81
2022/10/09 03:15:36;;;;;;;1.50;1.00;;;;;;;12.96;100.00;100542.97;6335879;22;20060;-81
2022/10/09 03:18:02;;;;;;;2.42;1.50;;;;;;;12.96;100.00;100539.41;6308645;22;20010;-81
2022/10/09 03:20:31;;;;;;;1.58;1.48;;;;;;;12.89;100.00;100540.38;6281875;22;20011;-81
2022/10/09 03:22:57;;;;;;;7.43;1.15;;;;;;;12.96;100.00;100537.41;6335824;22;20007;-81
2022/10/09 03:25:23;;;;;;;1.88;1.77;;;;;;;12.91;100.00;100537.13;6336617;22;20090;-81
2022/10/09 03:27:48;;;;;;;1.52;1.08;;;;;;;12.93;100.00;100535.50;6336481;22;20517;-81
2022/10/09 03:30:14;;;;;;;2.05;1.90;;;;;;;12.94;100.00;100530.72;6335443;22;20007;-81
2022/10/09 03:32:39;;;;;;;2.47;1.60;;;;;;;12.85;100.00;100536.91;6282349;22;20063;-81
2022/10/09 03:35:05;;;;;;;2.90;2.22;;;;;;;12.97;100.00;100552.09;6255795;22;20034;-81
2022/10/09 03:37:31;;;;;;;1.23;1.10;;;;;;;12.99;100.00;100563.56;6307868;22;20011;-81
2022/10/09 03:39:57;;;;;;;1.63;1.52;;;;;;;12.99;100.00;100566.34;6307434;22;20006;-81
2022/10/09 03:42:23;;;;;;;0.90;0.90;;;;;;;12.99;100.00;100556.00;6335848;22;20034;-81
2022/10/09 03:44:48;;;;;;;3.17;1.63;;;;;;;12.99;100.00;100567.13;6347313;22;20474;-85
2022/10/09 03:47:14;;;;;;;19.50;2.45;;;;;;;12.93;100.00;100559.78;6364953;22;20014;-84
2022/10/09 03:49:39;;;;;;;2.22;2.03;;;;;;;13.00;100.00;100549.22;6365052;22;20431;-84
2022/10/09 03:52:04;;;;;;;2.00;1.80;;;;;;;13.02;100.00;100571.06;6364369;22;20088;-86
2022/10/09 03:54:30;;;;;;;2.15;1.33;;;;;;;13.01;100.00;100575.84;6366578;22;20007;-83
2022/10/09 03:56:55;;;;;;;0.88;0.75;;;;;;;13.03;100.00;100576.16;6366500;22;20014;-84
2022/10/09 03:59:21;;;;;;;3.40;1.58;;;;;;;13.06;100.00;100588.44;6363848;22;20041;-84
2022/10/09 04:01:46;;;;;;;2.38;1.90;;;;;;;13.09;100.00;100573.63;6363966;22;20427;-78
2022/10/09 04:04:12;;;;;;;0.65;0.65;;;;;;;13.07;100.00;100576.84;6364166;22;20025;-86
2022/10/09 04:06:37;;;;;;;0.73;0.73;;;;;;;13.09;100.00;100588.34;6364288;22;20081;-86
2022/10/09 04:09:03;;;;;;;3.10;2.10;;;;;;;13.09;100.00;100574.41;6365284;22;20007;-85
2022/10/09 04:11:28;;;;;;;1.77;1.52;;;;;;;13.09;100.00;100588.34;6363680;22;20078;-86
2022/10/09 04:13:54;;;;;;;1.80;1.08;;;;;;;13.13;100.00;100582.72;6337352;22;20053;-86
2022/10/09 04:16:19;;;;;;;7.78;1.90;;;;;;;13.14;100.00;100589.06;6366063;22;20421;-86
2022/10/09 04:18:46;;;;;;;0.65;0.65;;;;;;;13.09;100.00;100577.22;6366835;22;20085;-86
2022/10/09 04:21:12;;;;;;;1.95;1.75;;;;;;;13.09;100.00;100587.56;6363934;22;19995;-87
2022/10/09 04:23:37;;;;;;;1.20;0.95;;;;;;;13.08;100.00;100589.56;6365861;22;20021;-77
2022/10/09 04:26:03;;;;;;;0.17;0.10;;;;;;;13.07;100.00;100596.34;6365759;22;20018;-77
2022/10/09 04:28:30;;;;;;;0.73;0.63;;;;;;;13.12;100.00;100602.63;6367124;22;20102;-77
2022/10/09 04:30:56;;;;;;;0.65;0.65;;;;;;;13.12;100.00;100599.84;6337142;22;20045;-76
2022/10/09 04:33:22;;;;;;;0.80;0.80;;;;;;;13.09;100.00;100601.50;6365086;22;19998;-76
2022/10/09 04:35:49;;;;;;;1.05;0.95;;;;;;;13.06;100.00;100614.28;6365618;22;20021;-76
2022/10/09 04:38:15;;;;;;;0.95;0.60;;;;;;;13.03;100.00;100611.59;6365104;22;19999;-76
2022/10/09 04:40:40;;;;;;;0.68;0.68;;;;;;;12.99;100.00;100610.91;6366135;22;20018;-87
2022/10/09 04:43:06;;;;;;;1.35;0.73;;;;;;;12.96;100.00;100609.78;6366711;22;20010;-85
2022/10/09 04:45:32;;;;;;;0.75;0.75;;;;;;;12.98;100.00;100618.47;6338089;22;20093;-85
2022/10/09 04:47:57;;;;;;;0.88;0.88;;;;;;;12.98;100.00;100615.69;6365063;22;20660;-84
2022/10/09 04:50:23;;;;;;;1.95;0.73;;;;;;;12.94;100.00;100620.56;6364948;22;20026;-85
2022/10/09 04:52:57;;;;;;;0.93;0.82;;;;;;;12.91;100.00;100615.88;6366284;22;20081;-85
2022/10/09 04:55:23;;;;;;;1.10;1.02;;;;;;;12.88;100.00;100619.56;6366721;22;20049;-85
2022/10/09 04:57:48;;;;;;;0.03;0.03;;;;;;;12.89;100.00;100623.91;6368036;22;20038;-76
2022/10/09 05:00:14;;;;;;;0.55;0.55;;;;;;;12.88;100.00;100627.91;6368715;22;20011;-87
2022/10/09 05:02:39;;;;;;;0.70;0.70;;;;;;;12.89;100.00;100637.06;6365807;22;20483;-87
2022/10/09 05:05:05;;;;;;;0.70;0.70;;;;;;;12.87;100.00;100636.69;6337212;22;20010;-85
2022/10/09 05:07:31;;;;;;;3.78;2.20;;;;;;;12.86;100.00;100624.78;6310573;22;20018;-86
2022/10/09 05:09:57;;;;;;;0.98;0.82;;;;;;;12.86;100.00;100635.91;6337696;22;20037;-86
2022/10/09 05:12:22;;;;;;;0.57;0.57;;;;;;;12.87;100.00;100636.69;6364926;22;20002;-84
2022/10/09 05:14:47;;;;;;;0.65;0.65;;;;;;;12.88;100.00;100649.41;6338374;22;20018;-86
2022/10/09 05:17:13;;;;;;;5.72;1.25;;;;;;;12.84;100.00;100638.38;6365539;22;20014;-86
2022/10/09 05:19:38;;;;;;;0.73;0.50;;;;;;;12.86;100.00;100644.25;6363033;22;20014;-78
2022/10/09 05:22:04;;;;;;;0.98;0.90;;;;;;;12.83;100.00;100642.34;6365793;22;20006;-76
2022/10/09 05:24:29;;;;;;;1.23;0.73;;;;;;;12.81;100.00;100644.81;6365777;22;20010;-76
2022/10/09 05:26:55;;;;;;;0.20;0.20;;;;;;;12.80;100.00;100648.81;6365374;22;20104;-78
2022/10/09 05:29:20;;;;;;;1.77;1.30;;;;;;;12.79;100.00;100641.66;6364652;22;20470;-77
2022/10/09 05:31:46;;;;;;;0.80;0.65;;;;;;;12.83;100.00;100653.50;6367536;22;20145;-76
2022/10/09 05:34:11;;;;;;;0.82;0.82;;;;;;;12.80;100.00;100657.16;6367866;22;20340;-75
2022/10/09 05:36:36;;;;;;;0.38;0.35;;;;;;;12.80;100.00;100659.94;6366567;22;20446;-76
2022/10/09 05:39:02;;;;;;;0.57;0.55;;;;;;;12.83;100.00;100669.41;6366325;22;20491;-84
2022/10/09 05:41:28;;;;;;;0.60;0.40;;;;;;;12.84;100.00;100654.28;6314315;22;20394;-85
2022/10/09 05:43:54;;;;;;;1.15;1.08;;;;;;;12.88;100.00;100683.59;6365791;22;20471;-85
2022/10/09 05:46:22;;;;;;;0.30;0.30;;;;;;;12.90;100.00;100683.94;6364488;22;20055;-85
2022/10/09 05:48:59;;;;;;;0.75;0.75;;;;;;;12.92;100.00;100694.63;6361742;22;20017;-85
2022/10/09 05:51:27;;;;;;;0.30;0.30;;;;;;;12.96;100.00;100707.25;6362345;22;20014;-85
2022/10/09 05:53:52;;;;;;;1.17;0.30;;;;;;;12.97;100.00;100700.47;6362573;22;20010;-85
2022/10/09 05:56:31;;;;;;;0.73;0.73;;;;;;;13.01;100.00;100698.38;6363462;22;20014;-86
2022/10/09 05:58:58;;;;;;;1.70;1.50;;;;;;;13.02;100.00;100705.50;6365749;22;20351;-77
2022/10/09 06:01:27;;;;;;;0.35;0.35;;;;;;;13.07;100.00;100704.19;6365634;22;20063;-78
2022/10/09 06:03:54;;;;;;;0.30;0.30;;;;;;;13.11;100.00;100706.91;6368059;22;20014;-77
2022/10/09 06:06:21;;;;;;;0.70;0.70;;;;;;;13.16;100.00;100714.72;6367594;22;20013;-77
2022/10/09 06:08:47;;;;;;;0.63;0.63;;;;;;;13.13;100.00;100715.63;6368130;22;20007;-78
2022/10/09 06:11:30;;;;;;;0.77;0.77;;;;;;;13.12;100.00;100719.63;6367299;22;19999;-80
2022/10/09 06:13:56;;;;;;;0.50;0.40;;;;;;;13.12;100.00;100723.19;6368477;22;20040;-77
2022/10/09 06:16:25;;;;;;;1.10;0.65;;;;;;;13.03;100.00;100729.34;6340155;22;20014;-86
2022/10/09 06:18:51;;;;;;;0.80;0.80;;;;;;;12.98;100.00;100743.03;6368709;22;20014;-85
2022/10/09 06:21:17;;;;;;;0.40;0.30;;;;;;;13.01;100.00;100731.81;6368215;22;20440;-85
2022/10/09 06:23:42;;;;;;;0.10;0.10;;;;;;;12.96;100.00;100728.75;6339570;22;20037;-86
2022/10/09 06:26:10;;;;;;;0.43;0.30;;;;;;;13.07;100.00;100752.31;6368928;22;20010;-86
2022/10/09 06:28:36;;;;;;;0.20;0.20;;;;;;;13.14;100.00;100754.19;6370119;22;20010;-88
2022/10/09 06:31:04;;;;;;;0.65;0.65;;;;;;;13.12;100.00;100750.25;6368903;22;20030;-86
2022/10/09 06:33:34;;;;;;;0.73;0.70;;;;;;;13.15;100.00;100763.31;6368330;22;20005;-85
2022/10/09 06:36:02;;;;;;;1.05;1.00;;;;;;;13.24;100.00;100760.69;6340329;22;20010;-77
2022/10/09 06:38:28;;;;;;;0.28;0.28;;;;;;;13.33;100.00;100763.63;6339361;22;20006;-77
2022/10/09 06:40:53;;;;;;;0.55;0.50;;;;;;;13.30;100.00;100754.16;6368323;22;20299;-77
2022/10/09 06:43:19;;;;;;;0.20;0.20;;;;;;;13.38;100.00;100763.13;6367725;22;20017;-76
2022/10/09 06:45:44;;;;;;;0.45;0.43;;;;;;;13.46;100.00;100767.28;6367788;22;20025;-76
2022/10/09 06:48:10;;;;;;;0.43;0.43;;;;;;;13.31;100.00;100777.22;6367661;22;20071;-76
2022/10/09 06:50:36;;;;;;;1.27;0.55;;;;;;;13.36;100.00;100783.03;6368027;22;20055;-86
2022/10/09 06:53:03;;;;;;;0.30;0.30;;;;;;;13.29;100.00;100779.66;6367292;22;20440;-85
2022/10/09 06:55:28;;;;;;;0.90;0.75;;;;;;;13.21;100.00;100786.63;6367218;22;20013;-77
2022/10/09 06:57:54;;;;;;;0.20;0.20;;;;;;;13.14;100.00;100789.63;6368010;22;20010;-76
2022/10/09 07:00:20;;;;;;;4.13;1.25;;;;;;;13.08;100.00;100798.44;6367680;22;20472;-76
2022/10/09 07:02:45;;;;;;;0.38;0.38;;;;;;;12.97;100.00;100797.94;6367285;22;20017;-77
2022/10/09 07:05:10;;;;;;;0.00;0.00;;;;;;;13.01;100.00;100801.44;6367652;22;20006;-77
2022/10/09 07:07:40;;;;;;;0.00;0.00;;;;;;;13.18;100.00;100807.03;6339136;22;20010;-78
2022/10/09 07:10:06;;;;;;;0.15;0.15;;;;;;;13.19;100.00;100809.34;6367482;22;20017;-78
2022/10/09 07:12:33;;;;;;;0.40;0.40;;;;;;;13.10;100.00;100812.00;6367696;22;20370;-78
2022/10/09 07:14:59;;;;;;;0.40;0.40;;;;;;;13.06;100.00;100812.03;6367833;22;20017;-88
2022/10/09 07:17:25;;;;;;;0.17;0.17;;;;;;;13.07;100.00;100808.03;6367411;22;20018;-86
2022/10/09 07:19:51;;;;;;;0.10;0.10;;;;;;;13.20;100.00;100810.91;6367948;22;20037;-86
2022/10/09 07:22:16;;;;;;;0.22;0.10;;;;;;;13.25;100.00;100809.63;6366793;22;20436;-86
2022/10/09 07:24:42;;;;;;;0.80;0.80;;;;;;;13.37;100.00;100820.06;6365889;22;20052;-86
2022/10/09 07:27:07;;;;;;;0.10;0.10;;;;;;;13.38;100.00;100821.63;6367138;22;20006;-87
2022/10/09 07:29:33;;;;;;;0.10;0.10;;;;;;;13.34;100.00;100818.16;6367661;22;20376;-76
2022/10/09 07:31:58;;;;;;;0.40;0.40;;;;;;;13.43;100.00;100823.88;6367887;22;20447;-77
2022/10/09 07:34:24;;;;;;;0.15;0.15;;;;;;;13.49;100.00;100824.91;6339515;22;20014;-85
2022/10/09 07:36:49;;;;;;;0.22;0.22;;;;;;;13.49;100.00;100822.13;6367624;22;20538;-87
2022/10/09 07:39:17;;;;;;;0.32;0.28;;;;;;;13.41;100.00;100820.75;6364214;22;20011;-85
2022/10/09 07:41:43;;;;;;;0.20;0.20;;;;;;;13.52;100.00;100821.25;6367284;22;20006;-87
2022/10/09 07:44:10;;;;;;;0.35;0.35;;;;;;;13.50;100.00;100812.56;6367077;22;20047;-85
2022/10/09 07:46:36;;;;;;;0.08;0.08;;;;;;;13.69;100.00;100820.00;6367681;22;20014;-86
2022/10/09 07:49:05;;;;;;;0.20;0.20;;;;;;;13.81;100.00;100822.06;6314054;22;20340;-86
2022/10/09 07:51:31;;;;;;;0.63;0.47;;;;;;;14.02;100.00;100818.69;6367658;22;20383;-78
2022/10/09 07:53:57;;;;;;;5.05;0.85;;;;;;;14.18;100.00;100817.03;6338173;22;20126;-77
2022/10/09 07:56:24;;;;;;;0.47;0.47;;;;;;;14.26;100.00;100812.81;6366908;22;20029;-78
2022/10/09 07:58:55;;;;;;;0.20;0.20;;;;;;;14.19;100.00;100824.19;6367622;22;20081;-78
2022/10/09 08:01:21;;;;;;;0.47;0.47;;;;;;;14.36;100.00;100822.91;6367121;22;20017;-77
2022/10/09 08:03:47;;;;;;;0.05;0.05;;;;;;;14.46;100.00;100821.81;6367772;22;20010;-78
2022/10/09 08:06:13;;;;;;;0.45;0.45;;;;;;;14.61;100.00;100820.16;6367196;22;20006;-78
2022/10/09 08:08:39;;;;;;;1.80;0.98;;;;;;;14.85;100.00;100826.97;6366570;22;20052;-77
2022/10/09 08:11:12;;;;;;;0.32;0.20;;;;;;;15.13;100.00;100830.84;6367549;22;20288;-85
2022/10/09 08:13:38;;;;;;;0.60;0.60;;;;;;;15.31;98.91;100830.28;6367421;22;20014;-86
2022/10/09 08:16:04;;;;;;;1.35;1.20;;;;;;;15.16;98.45;100837.56;6367608;22;20007;-86
2022/10/09 08:18:30;;;;;;;2.33;1.25;;;;;;;15.23;98.19;100834.53;6341348;22;20018;-87
2022/10/09 08:20:59;;;;;;;0.80;0.47;;;;;;;15.48;96.07;100842.88;6373656;22;19999;-86
2022/10/09 08:23:25;;;;;;;0.50;0.50;;;;;;;15.68;95.91;100843.41;6373008;22;20041;-86
2022/10/09 08:25:51;;;;;;;0.73;0.65;;;;;;;15.82;93.42;100828.91;6342634;22;20014;-84
2022/10/09 08:28:16;;;;;;;1.33;0.75;;;;;;;15.68;92.38;100849.00;6343333;22;20504;-87
2022/10/09 08:30:42;;;;;;;1.02;0.90;;;;;;;15.57;92.37;100842.97;6371741;22;20080;-77
2022/10/09 08:33:07;;;;;;;0.73;0.73;;;;;;;15.57;93.17;100848.56;6369325;22;20073;-77
2022/10/09 08:35:33;;;;;;;18.23;1.38;;;;;;;15.73;93.07;100842.81;6369083;22;20089;-77
2022/10/09 08:37:58;;;;;;;1.02;0.75;;;;;;;15.92;92.09;100842.97;6341182;22;20010;-77
2022/10/09 08:40:30;;;;;;;0.20;0.20;;;;;;;16.24;91.22;100851.00;6368744;22;20459;-78
2022/10/09 08:42:59;;;;;;;0.00;0.00;;;;;;;16.32;88.55;100841.09;6341255;22;20010;-78
2022/10/09 08:45:24;;;;;;;0.08;0.08;;;;;;;16.59;89.17;100848.88;6341619;22;20022;-77
2022/10/09 08:47:55;;;;;;;0.77;0.60;;;;;;;16.61;88.09;100858.41;6369434;22;20374;-77
2022/10/09 08:50:31;;;;;;;0.22;0.22;;;;;;;16.58;84.19;100853.69;6341223;22;20404;-87
2022/10/09 08:53:02;;;;;;;0.50;0.50;;;;;;;16.38;86.77;100860.88;6340347;22;20014;-87
2022/10/09 08:55:31;;;;;;;1.85;0.60;;;;;;;16.61;85.00;100858.41;6368955;22;20010;-86
2022/10/09 08:58:03;;;;;;;0.65;0.50;;;;;;;16.46;85.88;100859.38;6340943;22;20058;-86
2022/10/09 09:00:44;;;;;;;0.50;0.50;;;;;;;16.19;87.57;100863.56;6341329;22;20017;-87
2022/10/09 09:03:28;;;;;;;0.43;0.43;;;;;;;16.26;87.56;100865.28;6369330;22;20010;-86
2022/10/09 09:05:59;;;;;;;0.30;0.25;;;;;;;16.25;87.62;100881.34;6369225;22;20018;-87
2022/10/09 09:08:43;;;;;;;0.30;0.30;;;;;;;16.15;88.12;100870.50;6339759;22;20038;-77
2022/10/09 09:11:31;;;;;;;0.80;0.75;;;;;;;16.57;87.91;100868.19;6369635;22;20007;-77
2022/10/09 09:14:29;;;;;;;0.50;0.50;;;;;;;16.76;85.63;100872.63;6340725;22;20010;-77
2022/10/09 09:16:58;;;;;;;1.25;1.15;;;;;;;16.42;86.19;100867.91;6341033;22;20018;-77
2022/10/09 09:20:04;;;;;;;0.82;0.75;;;;;;;16.49;86.25;100878.06;6368892;22;20013;-77
2022/10/09 09:22:31;;;;;;;1.08;0.95;;;;;;;16.48;85.92;100873.69;6340203;22;20440;-77
2022/10/09 09:24:58;;;;;;;0.35;0.35;;;;;;;16.42;86.05;100870.69;6340582;22;20014;-87
2022/10/09 09:27:32;;;;;;;0.32;0.20;;;;;;;16.54;86.10;100878.22;6368402;22;20006;-77
2022/10/09 09:30:03;;;;;;;2.55;1.00;;;;;;;16.55;84.26;100877.00;6369210;22;20032;-78
2022/10/09 09:32:31;;;;;;;0.40;0.40;;;;;;;16.83;85.27;100866.75;6340788;22;20463;-78
2022/10/09 09:35:05;;;;;;;0.35;0.35;;;;;;;16.97;83.89;100860.59;6341187;22;20002;-78
2022/10/09 09:37:31;;;;;;;1.42;1.17;;;;;;;17.32;84.40;100861.16;6339748;22;20071;-78
2022/10/09 09:39:56;;;;;;;1.42;0.93;;;;;;;17.22;81.69;100860.38;6368805;22;20014;-78
2022/10/09 09:42:22;;;;;;;0.45;0.45;;;;;;;17.14;82.93;100861.13;6368490;22;20026;-75
2022/10/09 09:44:57;;;;;;;0.52;0.52;;;;;;;17.15;83.53;100865.47;6368899;22;20151;-86
2022/10/09 09:47:31;;;;;;;0.98;0.90;;;;;;;17.20;82.42;100859.25;6375066;22;20051;-76
2022/10/09 09:50:00;;;;;;;0.70;0.70;;;;;;;17.28;81.99;100866.13;6341834;22;20037;-78
2022/10/09 09:52:29;;;;;;;1.15;1.08;;;;;;;17.26;82.97;100857.44;6368759;22;20017;-77
2022/10/09 09:54:58;;;;;;;0.82;0.73;;;;;;;17.24;82.76;100859.91;6341238;22;20458;-76
2022/10/09 09:57:30;;;;;;;0.35;0.35;;;;;;;17.37;82.63;100856.97;6372058;22;20022;-77
2022/10/09 10:00:06;;;;;;;0.00;0.00;;;;;;;17.51;81.22;100859.94;6369630;22;20092;-77
2022/10/09 10:02:35;;;;;;;0.47;0.47;;;;;;;17.73;81.67;100856.28;6368236;22;20698;-77
2022/10/09 10:05:13;;;;;;;0.03;0.03;;;;;;;17.84;79.81;100862.19;6368433;22;20062;-87
2022/10/09 10:07:38;;;;;;;1.17;0.77;;;;;;;18.05;80.34;100862.06;6339825;22;20042;-87
2022/10/09 10:10:09;;;;;;;1.00;0.90;;;;;;;18.11;78.65;100865.03;6368067;22;20026;-86
2022/10/09 10:12:55;;;;;;;1.15;0.75;;;;;;;18.18;78.31;100864.69;6368149;22;20051;-87
2022/10/09 10:15:21;;;;;;;0.70;0.70;;;;;;;18.28;77.79;100852.19;6366667;22;20072;-87
2022/10/09 10:17:48;;;;;;;0.63;0.63;;;;;;;18.59;76.73;100861.22;6369725;22;20094;-85
2022/10/09 10:20:17;;;;;;;1.17;0.52;;;;;;;18.62;76.01;100863.09;6340503;22;20014;-85
2022/10/09 10:22:54;;;;;;;0.95;0.85;;;;;;;18.69;76.12;100864.00;6340736;22;20069;-87
2022/10/09 10:25:22;;;;;;;0.70;0.70;;;;;;;18.57;74.95;100863.72;6340198;22;20056;-78
2022/10/09 10:27:51;;;;;;;4.20;0.75;;;;;;;18.47;75.44;100870.59;6340052;22;20428;-78
2022/10/09 10:30:18;;;;;;;0.45;0.40;;;;;;;18.88;74.63;100846.63;6367196;22;20014;-78
2022/10/09 10:33:04;;;;;;;0.47;0.47;;;;;;;19.25;76.13;100864.06;6341101;22;20011;-78
2022/10/09 10:35:34;;;;;;;0.38;0.38;;;;;;;19.03;68.80;100849.50;6313116;22;20016;-77
2022/10/09 10:38:17;;;;;;;0.43;0.20;;;;;;;18.96;67.87;100849.84;6340421;22;20006;-77
2022/10/09 10:40:52;;;;;;;0.90;0.55;;;;;;;18.96;68.97;100855.47;6368084;22;20083;-77
2022/10/09 10:43:39;;;;;;;3.60;1.27;;;;;;;18.74;68.69;100854.94;6339515;22;20059;-87
2022/10/09 10:46:20;;;;;;;6.35;0.40;;;;;;;18.87;65.83;100847.06;6367870;22;20010;-86
2022/10/09 10:48:46;;;;;;;0.47;0.35;;;;;;;18.91;69.37;100848.47;6367941;22;20014;-86
2022/10/09 10:51:37;;;;;;;0.50;0.43;;;;;;;19.21;68.11;100849.41;6367937;22;20352;-83
2022/10/09 10:54:20;;;;;;;1.40;1.02;;;;;;;19.22;66.62;100844.56;6367701;22;20010;-86
2022/10/09 10:56:52;;;;;;;1.65;0.75;;;;;;;19.32;65.26;100843.25;6368202;22;20018;-87
2022/10/09 10:59:45;;;;;;;0.38;0.38;;;;;;;19.02;66.05;100842.31;6366472;22;20010;-86
2022/10/09 11:02:31;;;;;;;0.15;0.08;;;;;;;18.71;65.73;100853.06;6368005;22;20014;-87
2022/10/09 11:05:12;;;;;;;0.77;0.75;;;;;;;18.66;66.33;100848.09;6340484;22;20348;-87
2022/10/09 11:07:52;;;;;;;0.17;0.17;;;;;;;18.58;65.83;100840.00;6369082;22;20072;-87
2022/10/09 11:10:42;;;;;;;0.43;0.43;;;;;;;18.67;67.41;100835.59;6369297;22;20010;-87
2022/10/09 11:13:11;;;;;;;0.20;0.20;;;;;;;18.59;66.47;100832.34;6368543;22;20056;-88
2022/10/09 11:15:48;;;;;;;1.38;0.82;;;;;;;18.39;66.66;100832.06;6368490;22;21945;-87
2022/10/09 11:18:20;;;;;;;0.47;0.47;;;;;;;18.51;66.46;100828.28;6346553;22;20041;-87
2022/10/09 11:20:58;;;;;;;0.73;0.73;;;;;;;18.62;67.48;100831.41;6368786;22;20064;-87
2022/10/09 11:23:45;;;;;;;1.10;0.70;;;;;;;19.03;65.67;100815.75;6340101;22;20017;-78
2022/10/09 11:26:40;;;;;;;0.15;0.15;;;;;;;19.11;64.25;100822.59;6339632;22;20011;-78
2022/10/09 11:29:22;;;;;;;0.10;0.10;;;;;;;19.07;64.77;100813.56;6338898;22;20022;-79